createdAt,value
2023-05-14T00:00:48.111Z,14.10
2023-05-14T00:03:28.756Z,12.15
2023-05-14T00:05:56.136Z,15.13
2023-05-14T00:08:23.847Z,12.75
2023-05-14T00:10:51.167Z,15.73
2023-05-14T00:13:18.754Z,12.73
2023-05-14T00:15:47.104Z,14.95
2023-05-14T00:18:14.784Z,11.75
2023-05-14T00:20:42.104Z,14.90
2023-05-14T00:23:10.159Z,13.70
2023-05-14T00:25:37.566Z,15.48
2023-05-14T00:28:05.388Z,11.30
2023-05-14T00:30:32.806Z,13.55
2023-05-14T00:33:00.574Z,15.23
2023-05-14T00:35:28.052Z,15.35
2023-05-14T00:37:55.771Z,14.85
2023-05-14T00:40:27.806Z,15.88
2023-05-14T00:42:56.870Z,17.92
2023-05-14T00:45:24.393Z,15.23
2023-05-14T00:47:53.639Z,13.40
2023-05-14T00:50:21.982Z,15.57
2023-05-14T00:52:50.087Z,13.68
2023-05-14T00:55:18.603Z,12.63
2023-05-14T00:57:46.424Z,14.32
2023-05-14T01:00:14.303Z,12.43
2023-05-14T01:02:42.540Z,13.32
2023-05-14T01:05:10.195Z,12.88
2023-05-14T01:08:06.902Z,12.75
2023-05-14T01:10:52.576Z,14.68
2023-05-14T01:13:52.449Z,13.68
2023-05-14T01:16:20.350Z,12.77
2023-05-14T01:18:52.725Z,14.20
2023-05-14T01:21:40.966Z,16.15
2023-05-14T01:24:09.099Z,12.55
2023-05-14T01:26:37.545Z,14.05
2023-05-14T01:29:23.213Z,16.50
2023-05-14T01:31:54.326Z,13.27
2023-05-14T01:34:25.339Z,16.00
2023-05-14T01:36:56.020Z,12.52
2023-05-14T01:39:27.365Z,12.15
2023-05-14T01:41:55.842Z,12.13
2023-05-14T01:44:24.646Z,11.02
2023-05-14T01:46:51.895Z,13.30
2023-05-14T01:49:19.835Z,13.20
2023-05-14T01:51:47.143Z,11.82
2023-05-14T01:54:14.733Z,12.40
2023-05-14T01:56:41.969Z,10.43
2023-05-14T01:59:09.234Z,11.05
2023-05-14T02:01:36.854Z,10.73
2023-05-14T02:04:04.561Z,12.52
2023-05-14T02:06:32.307Z,9.85
2023-05-14T02:09:00.390Z,10.77
2023-05-14T02:11:27.958Z,10.88
2023-05-14T02:13:55.210Z,11.90
2023-05-14T02:16:23.048Z,11.48
2023-05-14T02:18:50.535Z,10.40
2023-05-14T02:21:18.274Z,14.02
2023-05-14T02:23:45.557Z,11.00
2023-05-14T02:26:13.175Z,12.40
2023-05-14T02:28:40.548Z,10.73
2023-05-14T02:31:08.214Z,11.05
2023-05-14T02:33:35.747Z,11.57
2023-05-14T02:36:03.616Z,10.80
2023-05-14T02:38:30.927Z,13.73
2023-05-14T02:40:58.547Z,9.50
2023-05-14T02:43:26.004Z,9.95
2023-05-14T02:45:55.615Z,10.15
2023-05-14T02:48:22.970Z,8.35
2023-05-14T02:50:52.225Z,11.60
2023-05-14T02:53:19.544Z,11.68
2023-05-14T02:55:48.543Z,11.25
2023-05-14T02:58:16.100Z,10.95
2023-05-14T03:00:43.789Z,11.65
2023-05-14T03:03:11.827Z,11.77
2023-05-14T03:05:39.872Z,11.82
2023-05-14T03:08:07.168Z,13.55
2023-05-14T03:10:34.761Z,11.07
2023-05-14T03:13:02.086Z,11.00
2023-05-14T03:15:29.683Z,10.25
2023-05-14T03:17:57.118Z,12.52
2023-05-14T03:20:27.163Z,10.55
2023-05-14T03:22:54.774Z,12.23
2023-05-14T03:25:22.512Z,15.52
2023-05-14T03:27:49.865Z,12.52
2023-05-14T03:30:17.654Z,13.10
2023-05-14T03:32:45.668Z,11.95
2023-05-14T03:35:13.570Z,12.25
2023-05-14T03:37:40.985Z,12.73
2023-05-14T03:40:09.309Z,14.15
2023-05-14T03:42:36.815Z,13.95
2023-05-14T03:45:04.906Z,10.55
2023-05-14T03:47:32.298Z,10.25
2023-05-14T03:49:59.934Z,11.45
2023-05-14T03:52:27.282Z,11.40
2023-05-14T03:54:54.902Z,10.82
2023-05-14T03:57:22.181Z,11.93
2023-05-14T03:59:49.902Z,10.20
2023-05-14T04:02:17.152Z,7.63
2023-05-14T04:04:46.307Z,10.00
2023-05-14T04:07:13.635Z,9.88
2023-05-14T04:09:41.231Z,10.07
2023-05-14T04:12:09.028Z,9.43
2023-05-14T04:14:36.574Z,8.57
2023-05-14T04:17:04.075Z,7.55
2023-05-14T04:19:31.626Z,9.90
2023-05-14T04:21:58.908Z,9.27
2023-05-14T04:24:26.428Z,8.98
2023-05-14T04:26:53.713Z,9.93
2023-05-14T04:29:21.244Z,8.85
2023-05-14T04:31:50.116Z,7.88
2023-05-14T04:34:17.792Z,7.55
2023-05-14T04:36:45.028Z,7.88
2023-05-14T04:39:12.653Z,7.78
2023-05-14T04:41:40.017Z,8.25
2023-05-14T04:44:07.776Z,7.95
2023-05-14T04:46:35.326Z,6.35
2023-05-14T04:49:03.021Z,7.00
2023-05-14T04:51:30.383Z,7.05
2023-05-14T04:53:58.172Z,8.77
2023-05-14T04:56:26.023Z,7.70
2023-05-14T04:58:53.645Z,6.57
2023-05-14T05:01:22.484Z,8.10
2023-05-14T05:03:50.115Z,9.27
2023-05-14T05:06:18.478Z,7.15
2023-05-14T05:08:45.977Z,7.85
2023-05-14T05:11:13.261Z,8.07
2023-05-14T05:13:41.692Z,8.13
2023-05-14T05:16:08.988Z,6.43
2023-05-14T05:18:36.600Z,6.63
2023-05-14T05:21:03.985Z,9.48
2023-05-14T05:23:31.574Z,6.63
2023-05-14T05:25:58.852Z,8.15
2023-05-14T05:28:26.372Z,6.68
2023-05-14T05:30:53.849Z,7.63
2023-05-14T05:33:21.607Z,7.38
2023-05-14T05:35:50.223Z,7.43
2023-05-14T05:38:18.455Z,6.43
2023-05-14T05:40:45.863Z,7.28
2023-05-14T05:43:14.029Z,8.30
2023-05-14T05:45:41.649Z,6.13
2023-05-14T05:48:16.671Z,7.63
2023-05-14T05:50:44.955Z,7.60
2023-05-14T05:53:12.672Z,7.45
2023-05-14T05:55:41.547Z,8.35
2023-05-14T05:58:09.196Z,8.57
2023-05-14T06:00:36.631Z,6.70
2023-05-14T06:03:12.051Z,6.60
2023-05-14T06:05:39.778Z,7.60
2023-05-14T06:08:07.713Z,7.00
2023-05-14T06:10:35.126Z,7.35
2023-05-14T06:13:02.671Z,8.65
2023-05-14T06:15:30.053Z,6.53
2023-05-14T06:17:57.922Z,6.95
2023-05-14T06:20:25.670Z,5.93
2023-05-14T06:22:53.580Z,6.80
2023-05-14T06:25:20.892Z,5.88
2023-05-14T06:27:48.452Z,7.80
2023-05-14T06:30:16.156Z,5.28
2023-05-14T06:32:43.814Z,41.65
2023-05-14T06:35:11.137Z,7.40
2023-05-14T06:37:38.755Z,6.78
2023-05-14T06:40:06.976Z,6.63
2023-05-14T06:42:34.669Z,18.08
2023-05-14T06:45:02.057Z,6.65
2023-05-14T06:47:29.698Z,7.03
2023-05-14T06:49:58.885Z,5.68
2023-05-14T06:52:26.572Z,4.00
2023-05-14T06:54:53.821Z,4.78
2023-05-14T06:57:21.459Z,5.30
2023-05-14T06:59:48.796Z,5.45
2023-05-14T07:02:16.433Z,5.57
2023-05-14T07:04:43.975Z,4.15
2023-05-14T07:07:15.467Z,4.32
2023-05-14T07:09:42.962Z,5.32
2023-05-14T07:12:10.623Z,5.25
2023-05-14T07:14:38.085Z,4.28
2023-05-14T07:17:05.717Z,5.70
2023-05-14T07:19:33.320Z,4.18
2023-05-14T07:22:01.377Z,5.43
2023-05-14T07:24:28.663Z,5.50
2023-05-14T07:26:57.481Z,5.82
2023-05-14T07:29:26.478Z,5.32
2023-05-14T07:31:54.132Z,5.28
2023-05-14T07:34:21.689Z,6.25
2023-05-14T07:36:49.371Z,4.72
2023-05-14T07:39:16.649Z,6.90
2023-05-14T07:41:44.323Z,5.82
2023-05-14T07:44:11.537Z,5.20
2023-05-14T07:46:39.244Z,6.13
2023-05-14T07:49:06.601Z,5.00
2023-05-14T07:51:40.392Z,8.07
2023-05-14T07:54:07.816Z,7.72
2023-05-14T07:56:35.414Z,6.00
2023-05-14T07:59:02.661Z,5.80
2023-05-14T08:01:31.338Z,10.70
2023-05-14T08:03:59.197Z,6.53
2023-05-14T08:06:28.372Z,11.65
2023-05-14T08:08:55.838Z,5.45
2023-05-14T08:11:23.566Z,5.45
2023-05-14T08:13:51.126Z,7.75
2023-05-14T08:16:18.803Z,6.93
2023-05-14T08:18:46.241Z,6.07
2023-05-14T08:21:13.786Z,14.15
2023-05-14T08:23:41.127Z,23.50
2023-05-14T08:26:10.170Z,8.50
2023-05-14T08:28:37.432Z,9.68
2023-05-14T08:31:05.652Z,22.10
2023-05-14T08:33:33.180Z,7.75
2023-05-14T08:36:01.907Z,9.73
2023-05-14T08:38:29.189Z,6.88
2023-05-14T08:41:00.834Z,4.05
2023-05-14T08:43:52.552Z,4.55
2023-05-14T08:46:24.676Z,4.85
2023-05-14T08:49:04.442Z,4.88
2023-05-14T08:51:33.359Z,5.28
2023-05-14T08:54:03.909Z,4.95
2023-05-14T08:56:33.658Z,4.07
2023-05-14T08:59:01.106Z,4.18
2023-05-14T09:01:29.941Z,4.18
2023-05-14T09:03:58.801Z,11.18
2023-05-14T09:06:27.469Z,4.65
2023-05-14T09:08:55.618Z,6.38
2023-05-14T09:11:24.793Z,4.10
2023-05-14T09:13:52.082Z,4.47
2023-05-14T09:16:21.877Z,8.60
2023-05-14T09:18:49.383Z,5.97
2023-05-14T09:21:36.823Z,11.15
2023-05-14T09:24:04.647Z,8.68
2023-05-14T09:26:34.643Z,5.35
2023-05-14T09:29:03.407Z,4.20
2023-05-14T09:31:37.563Z,3.47
2023-05-14T09:34:06.452Z,6.20
2023-05-14T09:36:35.386Z,5.20
2023-05-14T09:39:05.986Z,3.78
2023-05-14T09:41:33.981Z,3.63
2023-05-14T09:44:03.036Z,2.78
2023-05-14T09:46:32.060Z,3.13
2023-05-14T09:48:59.503Z,4.85
2023-05-14T09:51:31.643Z,3.88
2023-05-14T09:54:00.852Z,3.35
2023-05-14T09:56:28.599Z,3.63
2023-05-14T09:58:55.892Z,2.60
2023-05-14T10:01:25.113Z,3.53
2023-05-14T10:03:55.003Z,4.80
2023-05-14T10:06:27.731Z,6.13
2023-05-14T10:09:01.478Z,2.80
2023-05-14T10:11:34.473Z,2.42
2023-05-14T10:14:20.884Z,2.60
2023-05-14T10:16:51.598Z,2.78
2023-05-14T10:19:24.341Z,2.72
2023-05-14T10:22:08.358Z,3.53
2023-05-14T10:24:39.132Z,2.88
2023-05-14T10:27:07.421Z,4.25
2023-05-14T10:29:38.261Z,3.60
2023-05-14T10:32:10.230Z,2.60
2023-05-14T10:34:46.634Z,6.97
2023-05-14T10:37:21.019Z,2.25
2023-05-14T10:39:53.833Z,2.83
2023-05-14T10:42:25.946Z,3.88
2023-05-14T10:45:07.624Z,4.13
2023-05-14T10:47:42.684Z,3.75
2023-05-14T10:50:13.244Z,3.55
2023-05-14T10:52:45.878Z,3.20
2023-05-14T10:55:16.644Z,4.53
2023-05-14T10:57:46.999Z,3.55
2023-05-14T11:00:15.742Z,6.45
2023-05-14T11:02:45.319Z,5.05
2023-05-14T11:05:17.561Z,10.38
2023-05-14T11:07:48.512Z,18.10
2023-05-14T11:10:22.132Z,10.27
2023-05-14T11:12:51.727Z,4.70
2023-05-14T11:15:24.013Z,5.47
2023-05-14T11:17:53.686Z,7.63
2023-05-14T11:20:21.998Z,9.40
2023-05-14T11:22:51.902Z,3.92
2023-05-14T11:25:19.399Z,3.45
2023-05-14T11:27:50.138Z,4.32
2023-05-14T11:30:20.639Z,5.55
2023-05-14T11:32:50.555Z,12.13
2023-05-14T11:35:18.779Z,15.05
2023-05-14T11:37:53.051Z,6.53
2023-05-14T11:40:21.883Z,3.17
2023-05-14T11:42:53.630Z,2.70
2023-05-14T11:45:29.924Z,3.67
2023-05-14T11:47:57.816Z,3.83
2023-05-14T11:50:25.539Z,5.95
2023-05-14T11:52:57.598Z,3.38
2023-05-14T11:55:25.234Z,4.68
2023-05-14T11:57:53.005Z,3.72
2023-05-14T12:00:22.197Z,5.25
2023-05-14T12:02:50.431Z,3.55
2023-05-14T12:05:19.121Z,2.78
2023-05-14T12:07:48.038Z,4.00
2023-05-14T12:10:15.713Z,25.92
2023-05-14T12:12:48.309Z,11.07
2023-05-14T12:15:17.426Z,3.53
2023-05-14T12:17:52.073Z,2.90
2023-05-14T12:20:20.209Z,5.10
2023-05-14T12:22:47.992Z,3.40
2023-05-14T12:25:15.439Z,3.90
2023-05-14T12:27:45.942Z,3.53
2023-05-14T12:32:46.040Z,2.38
2023-05-14T12:35:13.509Z,2.50
2023-05-14T12:37:41.961Z,2.05
2023-05-14T12:40:09.857Z,3.85
2023-05-14T12:42:37.786Z,2.05
2023-05-14T12:45:08.159Z,1.63
2023-05-14T12:47:37.210Z,2.75
2023-05-14T12:50:06.231Z,1.73
2023-05-14T12:52:38.619Z,2.50
2023-05-14T12:55:09.457Z,1.58
2023-05-14T12:57:39.612Z,4.72
2023-05-14T13:00:13.024Z,28.02
2023-05-14T13:02:43.696Z,2.40
2023-05-14T13:05:13.116Z,2.00
2023-05-14T13:07:41.250Z,2.95
2023-05-14T13:10:09.432Z,1.67
2023-05-14T13:12:37.097Z,1.92
2023-05-14T13:15:05.473Z,6.88
2023-05-14T13:17:33.257Z,2.13
2023-05-14T13:20:00.836Z,2.95
2023-05-14T13:22:28.629Z,2.13
2023-05-14T13:24:55.976Z,1.90
2023-05-14T13:27:23.907Z,2.00
2023-05-14T13:29:51.268Z,2.45
2023-05-14T13:32:18.919Z,1.65
2023-05-14T13:34:52.109Z,1.92
2023-05-14T13:37:20.025Z,1.83
2023-05-14T13:39:48.717Z,7.75
2023-05-14T13:42:17.250Z,15.43
2023-05-14T13:44:44.637Z,3.90
2023-05-14T13:47:12.676Z,1.20
2023-05-14T13:49:41.551Z,1.55
2023-05-14T13:52:09.150Z,3.20
2023-05-14T13:54:36.496Z,2.03
2023-05-14T13:57:04.453Z,1.92
2023-05-14T13:59:31.843Z,1.55
2023-05-14T14:01:59.683Z,1.73
2023-05-14T14:04:29.187Z,1.60
2023-05-14T14:06:57.189Z,1.50
2023-05-14T14:09:25.038Z,1.60
2023-05-14T14:11:52.848Z,1.50
2023-05-14T14:14:20.393Z,2.17
2023-05-14T14:16:47.947Z,1.50
2023-05-14T14:19:16.421Z,1.95
2023-05-14T14:21:46.513Z,2.60
2023-05-14T14:24:13.865Z,1.95
2023-05-14T14:26:41.521Z,2.95
2023-05-14T14:29:08.911Z,1.52
2023-05-14T14:31:37.126Z,1.40
2023-05-14T14:34:04.582Z,1.55
2023-05-14T14:36:32.320Z,4.95
2023-05-14T14:38:59.580Z,2.70
2023-05-14T14:41:27.497Z,1.85
2023-05-14T14:43:54.795Z,1.52
2023-05-14T14:46:22.592Z,2.75
2023-05-14T14:48:50.059Z,6.18
2023-05-14T14:51:17.736Z,2.13
2023-05-14T14:53:45.238Z,1.27
2023-05-14T14:56:12.828Z,1.70
2023-05-14T14:58:40.095Z,2.03
2023-05-14T15:01:07.775Z,1.60
2023-05-14T15:03:35.454Z,1.23
2023-05-14T15:06:03.141Z,2.67
2023-05-14T15:08:30.402Z,1.58
2023-05-14T15:10:58.267Z,1.30
2023-05-14T15:13:25.862Z,2.55
2023-05-14T15:15:53.557Z,3.90
2023-05-14T15:18:21.236Z,2.00
2023-05-14T15:20:49.029Z,1.90
2023-05-14T15:23:16.439Z,3.63
2023-05-14T15:25:44.540Z,2.25
2023-05-14T15:28:11.789Z,1.90
2023-05-14T15:30:39.626Z,2.83
2023-05-14T15:33:08.883Z,1.83
2023-05-14T15:35:36.778Z,2.58
2023-05-14T15:38:04.298Z,2.20
2023-05-14T15:40:33.193Z,1.85
2023-05-14T15:43:00.592Z,3.17
2023-05-14T15:45:28.415Z,2.50
2023-05-14T15:47:55.899Z,1.70
2023-05-14T15:50:23.750Z,2.22
2023-05-14T15:52:51.393Z,3.28
2023-05-14T15:55:19.762Z,1.85
2023-05-14T15:57:47.189Z,1.33
2023-05-14T16:00:15.262Z,2.63
2023-05-14T16:02:42.699Z,3.10
2023-05-14T16:05:10.488Z,3.55
2023-05-14T16:07:38.428Z,2.03
2023-05-14T16:10:06.931Z,3.15
2023-05-14T16:12:34.480Z,12.48
2023-05-14T16:15:02.254Z,4.03
2023-05-14T16:17:31.611Z,2.25
2023-05-14T16:20:01.333Z,3.80
2023-05-14T16:22:29.568Z,2.90
2023-05-14T16:24:57.154Z,5.97
2023-05-14T16:27:24.775Z,4.22
2023-05-14T16:29:52.798Z,4.75
2023-05-14T16:32:20.295Z,3.92
2023-05-14T16:34:50.079Z,3.45
2023-05-14T16:37:20.044Z,3.47
2023-05-14T16:39:48.043Z,3.17
2023-05-14T16:42:15.400Z,2.58
2023-05-14T16:44:42.973Z,2.85
2023-05-14T16:47:10.521Z,5.25
2023-05-14T16:49:38.268Z,3.15
2023-05-14T16:52:06.394Z,2.25
2023-05-14T16:54:34.124Z,3.47
2023-05-14T16:57:01.701Z,2.90
2023-05-14T16:59:29.324Z,6.40
2023-05-14T17:01:56.657Z,13.40
2023-05-14T17:04:26.698Z,10.50
2023-05-14T17:06:55.770Z,2.53
2023-05-14T17:09:23.677Z,2.53
2023-05-14T17:11:50.952Z,3.22
2023-05-14T17:14:18.624Z,2.28
2023-05-14T17:16:46.200Z,3.15
2023-05-14T17:19:13.848Z,2.78
2023-05-14T17:21:41.440Z,4.22
2023-05-14T17:24:08.913Z,2.95
2023-05-14T17:26:37.846Z,1.85
2023-05-14T17:29:05.179Z,3.03
2023-05-14T17:31:33.007Z,2.67
2023-05-14T17:34:00.850Z,8.02
2023-05-14T17:36:28.829Z,4.43
2023-05-14T17:38:56.208Z,3.78
2023-05-14T17:41:23.840Z,3.80
2023-05-14T17:43:52.622Z,2.88
2023-05-14T17:46:21.354Z,2.40
2023-05-14T17:48:48.745Z,3.13
2023-05-14T17:51:16.852Z,1.70
2023-05-14T17:53:45.137Z,2.83
2023-05-14T17:56:12.952Z,5.15
2023-05-14T17:58:40.388Z,3.65
2023-05-14T18:01:08.019Z,2.55
2023-05-14T18:03:35.595Z,2.75
2023-05-14T18:06:03.315Z,3.15
2023-05-14T18:08:30.676Z,3.83
2023-05-14T18:11:00.828Z,3.78
2023-05-14T18:13:28.313Z,5.30
2023-05-14T18:15:56.693Z,5.53
2023-05-14T18:18:24.210Z,4.18
2023-05-14T18:20:52.711Z,5.63
2023-05-14T18:23:20.109Z,4.70
2023-05-14T18:25:48.527Z,5.00
2023-05-14T18:28:16.039Z,4.18
2023-05-14T18:30:43.762Z,5.60
2023-05-14T18:33:11.325Z,3.85
2023-05-14T18:35:39.180Z,3.38
2023-05-14T18:38:08.102Z,2.80
2023-05-14T18:40:35.709Z,4.88
2023-05-14T18:43:03.144Z,3.92
2023-05-14T18:45:30.835Z,4.82
2023-05-14T18:47:58.240Z,5.80
2023-05-14T18:50:25.981Z,7.82
2023-05-14T18:52:53.260Z,24.67
2023-05-14T18:55:20.967Z,14.30
2023-05-14T18:57:48.529Z,6.80
2023-05-14T19:00:16.611Z,9.60
2023-05-14T19:02:44.192Z,5.32
2023-05-14T19:05:12.013Z,5.82
2023-05-14T19:07:40.875Z,3.38
2023-05-14T19:10:10.476Z,6.00
2023-05-14T19:12:37.993Z,3.00
2023-05-14T19:15:06.646Z,2.67
2023-05-14T19:17:34.244Z,3.60
2023-05-14T19:20:01.947Z,4.28
2023-05-14T19:22:29.405Z,5.00
2023-05-14T19:24:57.064Z,3.08
2023-05-14T19:27:24.581Z,5.70
2023-05-14T19:29:52.417Z,3.97
2023-05-14T19:32:19.746Z,6.60
2023-05-14T19:34:48.415Z,6.22
2023-05-14T19:37:16.739Z,6.00
2023-05-14T19:39:44.468Z,5.40
2023-05-14T19:42:11.777Z,6.75
2023-05-14T19:44:39.438Z,7.35
2023-05-14T19:47:07.777Z,5.13
2023-05-14T19:49:35.481Z,4.95
2023-05-14T19:52:02.913Z,5.47
2023-05-14T19:54:30.619Z,3.28
2023-05-14T19:56:57.980Z,3.40
2023-05-14T19:59:25.624Z,4.75
2023-05-14T20:01:54.909Z,3.65
2023-05-14T20:04:22.681Z,2.92
2023-05-14T20:06:50.127Z,4.65
2023-05-14T20:09:17.919Z,4.68
2023-05-14T20:11:45.188Z,2.75
2023-05-14T20:14:14.207Z,4.53
2023-05-14T20:16:41.974Z,4.32
2023-05-14T20:19:09.719Z,3.33
2023-05-14T20:21:37.059Z,6.03
2023-05-14T20:24:06.103Z,3.65
2023-05-14T20:26:33.524Z,2.90
2023-05-14T20:29:01.220Z,2.90
2023-05-14T20:31:29.047Z,3.97
2023-05-14T20:33:57.057Z,6.60
2023-05-14T20:36:24.559Z,8.57
2023-05-14T20:38:54.603Z,9.05
2023-05-14T20:41:22.552Z,10.77
2023-05-14T20:43:50.175Z,8.90
2023-05-14T20:46:17.738Z,8.50
2023-05-14T20:48:48.412Z,7.28
2023-05-14T20:51:17.249Z,8.40
2023-05-14T20:53:44.880Z,7.05
2023-05-14T20:56:12.636Z,7.50
2023-05-14T20:58:40.406Z,7.93
2023-05-14T21:01:09.633Z,11.02
2023-05-14T21:03:37.435Z,7.43
2023-05-14T21:06:05.276Z,7.97
2023-05-14T21:08:35.081Z,7.57
2023-05-14T21:11:03.095Z,9.32
2023-05-14T21:13:30.775Z,7.65
2023-05-14T21:16:00.354Z,7.55
2023-05-14T21:18:30.918Z,9.30
2023-05-14T21:20:58.740Z,11.13
2023-05-14T21:23:26.642Z,9.45
2023-05-14T21:25:55.061Z,8.80
2023-05-14T21:28:22.860Z,11.27
2023-05-14T21:30:51.463Z,11.95
2023-05-14T21:33:19.614Z,10.65
2023-05-14T21:35:46.972Z,11.05
2023-05-14T21:38:15.036Z,11.55
2023-05-14T21:40:42.373Z,16.67
2023-05-14T21:43:09.927Z,9.45
2023-05-14T21:45:37.423Z,11.40
2023-05-14T21:48:05.597Z,10.38
2023-05-14T21:50:33.214Z,11.88
2023-05-14T21:53:00.962Z,11.68
2023-05-14T21:55:28.911Z,12.48
2023-05-14T21:57:56.843Z,13.23
2023-05-14T22:00:24.229Z,11.52
2023-05-14T22:02:55.597Z,13.20
2023-05-14T22:05:23.330Z,11.52
2023-05-14T22:07:52.196Z,11.98
2023-05-14T22:10:19.667Z,12.07
2023-05-14T22:12:47.369Z,11.82
2023-05-14T22:15:15.193Z,13.18
2023-05-14T22:17:42.853Z,14.05
2023-05-14T22:20:11.643Z,11.48
2023-05-14T22:22:40.004Z,16.02
2023-05-14T22:25:08.687Z,12.82
2023-05-14T22:27:36.285Z,11.82
2023-05-14T22:30:03.832Z,12.88
2023-05-14T22:32:31.451Z,12.25
2023-05-14T22:34:58.826Z,12.38
2023-05-14T22:37:26.452Z,12.38
2023-05-14T22:39:53.822Z,12.88
2023-05-14T22:42:21.364Z,10.10
2023-05-14T22:44:48.782Z,10.98
2023-05-14T22:47:16.512Z,9.02
2023-05-14T22:49:43.928Z,8.13
2023-05-14T22:52:11.622Z,9.23
2023-05-14T22:54:38.973Z,8.90
2023-05-14T22:57:06.812Z,6.72
2023-05-14T22:59:34.297Z,6.82
2023-05-14T23:02:02.311Z,7.00
2023-05-14T23:04:29.814Z,5.53
2023-05-14T23:06:58.655Z,5.63
2023-05-14T23:09:25.963Z,6.40
2023-05-14T23:11:53.710Z,7.90
2023-05-14T23:14:21.187Z,4.85
2023-05-14T23:16:48.713Z,5.28
2023-05-14T23:19:16.273Z,6.88
2023-05-14T23:21:44.071Z,15.52
2023-05-14T23:24:11.317Z,5.53
2023-05-14T23:26:39.370Z,6.38
2023-05-14T23:29:07.068Z,6.28
2023-05-14T23:31:35.459Z,6.85
2023-05-14T23:34:03.383Z,6.43
2023-05-14T23:36:32.703Z,4.97
2023-05-14T23:39:00.380Z,5.40
2023-05-14T23:41:27.961Z,7.07
2023-05-14T23:43:58.142Z,6.53
2023-05-14T23:46:25.863Z,6.85
2023-05-14T23:48:57.097Z,6.75
2023-05-14T23:51:25.167Z,7.43
2023-05-14T23:53:56.490Z,6.55
2023-05-14T23:56:25.902Z,5.85
2023-05-14T23:58:53.658Z,7.85
